Tiger — 9HA2271 — position and weather

sailwx.info

Track history (hours):
 
Tides and Currents Weather Stations Pressure Air Temp Water Temp Dewpoint Dewpoint Depression Visibility Wind Speed Wind Dir Waves Ship Positions

Tiger

Last reported at 2015-Jun-25 05:33 UTC. Time now 2015-Jul-06 17:47 UTC.
Position N 01°11' E 103°49'.
Warning: this ship's position is 11 days out of date.

Length 232 m; draft 9.7 m.

Type: Cargo ship. MMSI: 248223000.

Date/timePositionNaut miles runAvg speedWind from/ knotsBaromVisibWave heightAir tempDewpointWater temp
2015-Jun-25 05:33N 01°11' E 103°49'1313.1
2015-Jun-25 04:31N 01°17' E 104°01'1 0.5
2015-Jun-25 03:30N 01°17' E 104°01'0 0.1
2015-Jun-25 02:33N 01°17' E 104°01'0 0.0
2015-Jun-25 01:30N 01°17' E 104°01'0 0.0
2015-Jun-25 00:30N 01°17' E 104°01'0 0.0
2015-Jun-24 23:33N 01°17' E 104°01'0 0.0
2015-Jun-24 22:33N 01°17' E 104°01'0 0.1
2015-Jun-24 21:27N 01°17' E 104°01'0 0.0
2015-Jun-24 19:33N 01°17' E 104°01'0 0.0
2015-Jun-24 18:24N 01°17' E 104°01'0 0.1
2015-Jun-24 17:33N 01°17' E 104°01'0 0.1
2015-Jun-24 16:33N 01°17' E 104°01'2 2.0
2015-Jun-24 15:33N 01°17' E 103°59'1 1.0
2015-Jun-24 14:33N 01°16' E 103°59'1211.8
2015-Jun-24 13:30N 01°17' E 104°11'  
2015-Jun-15 17:04N 31°06' E 122°29'611.7
2015-Jun-15 16:33N 31°06' E 122°22'1414.4
2015-Jun-15 15:33N 31°13' E 122°08'1514.9
2015-Jun-15 14:34N 31°16' E 121°51'9 8.9
2015-Jun-15 13:32N 31°19' E 121°41'0 0.0
2015-Jun-15 12:32N 31°19' E 121°41'0 0.0
2015-Jun-15 11:32N 31°19' E 121°41'0 0.0
2015-Jun-15 10:32N 31°19' E 121°41'0 0.0
2015-Jun-15 09:29N 31°19' E 121°41'0 0.0
2015-Jun-15 08:32N 31°19' E 121°41'0 0.0
2015-Jun-15 07:32N 31°19' E 121°41'0 0.0
2015-Jun-15 06:29N 31°19' E 121°41'  
Track history (hours):
 
Tides and Currents Weather Stations Pressure Air Temp Water Temp Dewpoint Dewpoint Depression Visibility Wind Speed Wind Dir Waves Ship Positions

Tiger

Last reported at 2015-Jun-25 05:33 UTC. Time now 2015-Jul-06 17:47 UTC.
Position N 01°11' E 103°49'.
Warning: this ship's position is 11 days out of date.

Length 232 m; draft 9.7 m.

Type: Cargo ship. MMSI: 248223000.

Date/timePositionNaut miles runAvg speedWind from/ knotsBaromVisibWave heightAir tempDewpointWater temp
2015-Jun-25 05:33N 01°11' E 103°49'1313.1
2015-Jun-25 04:31N 01°17' E 104°01'1 0.5
2015-Jun-25 03:30N 01°17' E 104°01'0 0.1
2015-Jun-25 02:33N 01°17' E 104°01'0 0.0
2015-Jun-25 01:30N 01°17' E 104°01'0 0.0
2015-Jun-25 00:30N 01°17' E 104°01'0 0.0
2015-Jun-24 23:33N 01°17' E 104°01'0 0.0
2015-Jun-24 22:33N 01°17' E 104°01'0 0.1
2015-Jun-24 21:27N 01°17' E 104°01'0 0.0
2015-Jun-24 19:33N 01°17' E 104°01'0 0.0
2015-Jun-24 18:24N 01°17' E 104°01'0 0.1
2015-Jun-24 17:33N 01°17' E 104°01'0 0.1
2015-Jun-24 16:33N 01°17' E 104°01'2 2.0
2015-Jun-24 15:33N 01°17' E 103°59'1 1.0
2015-Jun-24 14:33N 01°16' E 103°59'1211.8
2015-Jun-24 13:30N 01°17' E 104°11'  
2015-Jun-15 17:04N 31°06' E 122°29'611.7
2015-Jun-15 16:33N 31°06' E 122°22'1414.4
2015-Jun-15 15:33N 31°13' E 122°08'1514.9
2015-Jun-15 14:34N 31°16' E 121°51'9 8.9
2015-Jun-15 13:32N 31°19' E 121°41'0 0.0
2015-Jun-15 12:32N 31°19' E 121°41'0 0.0
2015-Jun-15 11:32N 31°19' E 121°41'0 0.0
2015-Jun-15 10:32N 31°19' E 121°41'0 0.0
2015-Jun-15 09:29N 31°19' E 121°41'0 0.0
2015-Jun-15 08:32N 31°19' E 121°41'0 0.0
2015-Jun-15 07:32N 31°19' E 121°41'0 0.0
2015-Jun-15 06:29N 31°19' E 121°41'  

Dump ship's entire track history